sensor_id;sensor_type;location;lat;lon;timestamp;pressure;altitude;pressure_sealevel;temperature;humidity
9839;BME280;4958;48.150;11.506;2023-02-01T00:02:25;96131.31;;;4.92;67.95
9839;BME280;4958;48.150;11.506;2023-02-01T00:04:52;96127.47;;;4.98;67.78
9839;BME280;4958;48.150;11.506;2023-02-01T00:07:18;96129.34;;;4.96;67.44
9839;BME280;4958;48.150;11.506;2023-02-01T00:09:44;96127.84;;;5.03;67.00
9839;BME280;4958;48.150;11.506;2023-02-01T00:12:11;96122.88;;;5.01;67.24
9839;BME280;4958;48.150;11.506;2023-02-01T00:14:37;96123.53;;;4.94;67.00
9839;BME280;4958;48.150;11.506;2023-02-01T00:17:05;96125.78;;;4.87;67.31
9839;BME280;4958;48.150;11.506;2023-02-01T00:19:33;96123.28;;;4.97;66.98
9839;BME280;4958;48.150;11.506;2023-02-01T00:22:00;96125.03;;;4.96;67.13
9839;BME280;4958;48.150;11.506;2023-02-01T00:24:26;96125.72;;;4.98;67.27
9839;BME280;4958;48.150;11.506;2023-02-01T00:26:53;96124.25;;;5.05;66.89
9839;BME280;4958;48.150;11.506;2023-02-01T00:29:20;96133.09;;;5.01;67.54
9839;BME280;4958;48.150;11.506;2023-02-01T00:31:46;96119.41;;;5.02;68.13
9839;BME280;4958;48.150;11.506;2023-02-01T00:34:15;96114.69;;;4.98;68.63
9839;BME280;4958;48.150;11.506;2023-02-01T00:36:43;96113.78;;;4.99;68.78
9839;BME280;4958;48.150;11.506;2023-02-01T00:39:10;96117.28;;;5.07;68.92
9839;BME280;4958;48.150;11.506;2023-02-01T00:41:37;96122.94;;;5.11;68.63
9839;BME280;4958;48.150;11.506;2023-02-01T00:44:05;96114.03;;;5.05;69.29
9839;BME280;4958;48.150;11.506;2023-02-01T00:46:32;96110.81;;;5.03;69.83
9839;BME280;4958;48.150;11.506;2023-02-01T00:48:58;96116.31;;;4.99;70.24
9839;BME280;4958;48.150;11.506;2023-02-01T00:51:26;96106.25;;;4.97;70.94
9839;BME280;4958;48.150;11.506;2023-02-01T00:53:55;96100.31;;;4.97;71.67
9839;BME280;4958;48.150;11.506;2023-02-01T00:56:21;96104.88;;;4.93;72.30
9839;BME280;4958;48.150;11.506;2023-02-01T00:58:48;96109.28;;;4.91;73.48
9839;BME280;4958;48.150;11.506;2023-02-01T01:01:16;96092.88;;;4.84;74.58
9839;BME280;4958;48.150;11.506;2023-02-01T01:03:45;96095.03;;;4.79;74.97
9839;BME280;4958;48.150;11.506;2023-02-01T01:06:14;96097.97;;;4.84;74.89
9839;BME280;4958;48.150;11.506;2023-02-01T01:08:41;96097.28;;;4.82;74.85
9839;BME280;4958;48.150;11.506;2023-02-01T01:11:11;96096.78;;;4.88;74.72
9839;BME280;4958;48.150;11.506;2023-02-01T01:13:38;96091.81;;;4.86;75.09
9839;BME280;4958;48.150;11.506;2023-02-01T01:16:05;96095.19;;;4.87;74.96
9839;BME280;4958;48.150;11.506;2023-02-01T01:18:33;96090.19;;;4.85;75.10
9839;BME280;4958;48.150;11.506;2023-02-01T01:21:00;96089.38;;;4.85;74.88
9839;BME280;4958;48.150;11.506;2023-02-01T01:23:27;96090.59;;;4.81;75.68
9839;BME280;4958;48.150;11.506;2023-02-01T01:25:54;96089.81;;;4.80;75.61
9839;BME280;4958;48.150;11.506;2023-02-01T01:28:22;96090.44;;;4.82;75.37
9839;BME280;4958;48.150;11.506;2023-02-01T01:30:48;96098.09;;;4.82;75.43
9839;BME280;4958;48.150;11.506;2023-02-01T01:33:14;96088.00;;;4.71;76.60
9839;BME280;4958;48.150;11.506;2023-02-01T01:35:41;96096.72;;;4.69;78.15
9839;BME280;4958;48.150;11.506;2023-02-01T01:38:09;96087.00;;;4.63;79.01
9839;BME280;4958;48.150;11.506;2023-02-01T01:40:36;96091.31;;;4.62;79.32
9839;BME280;4958;48.150;11.506;2023-02-01T01:43:03;96087.00;;;4.63;79.58
9839;BME280;4958;48.150;11.506;2023-02-01T01:45:32;96082.22;;;4.69;79.45
9839;BME280;4958;48.150;11.506;2023-02-01T01:48:02;96079.78;;;4.68;79.70
9839;BME280;4958;48.150;11.506;2023-02-01T01:50:32;96069.44;;;4.60;80.86
9839;BME280;4958;48.150;11.506;2023-02-01T01:53:01;96061.41;;;4.43;81.73
9839;BME280;4958;48.150;11.506;2023-02-01T01:55:32;96065.22;;;4.49;82.12
9839;BME280;4958;48.150;11.506;2023-02-01T01:58:02;96061.84;;;4.48;82.05
9839;BME280;4958;48.150;11.506;2023-02-01T02:00:32;96052.59;;;4.47;82.88
9839;BME280;4958;48.150;11.506;2023-02-01T02:03:02;96056.63;;;4.50;82.80
9839;BME280;4958;48.150;11.506;2023-02-01T02:05:30;96045.38;;;4.53;82.71
9839;BME280;4958;48.150;11.506;2023-02-01T02:07:58;96044.66;;;4.41;83.21
9839;BME280;4958;48.150;11.506;2023-02-01T02:10:24;96042.00;;;4.42;83.76
9839;BME280;4958;48.150;11.506;2023-02-01T02:13:13;96051.78;;;4.47;83.33
9839;BME280;4958;48.150;11.506;2023-02-01T02:15:45;96047.88;;;4.43;83.69
9839;BME280;4958;48.150;11.506;2023-02-01T02:18:20;96043.56;;;4.34;84.56
9839;BME280;4958;48.150;11.506;2023-02-01T02:21:10;96049.66;;;4.42;84.21
9839;BME280;4958;48.150;11.506;2023-02-01T02:27:03;96063.34;;;4.51;84.00
9839;BME280;4958;48.150;11.506;2023-02-01T02:30:18;96070.03;;;4.42;84.39
9839;BME280;4958;48.150;11.506;2023-02-01T02:35:42;96067.66;;;4.30;85.18
9839;BME280;4958;48.150;11.506;2023-02-01T02:38:18;96058.75;;;4.45;84.36
9839;BME280;4958;48.150;11.506;2023-02-01T02:40:53;96057.78;;;4.36;85.39
9839;BME280;4958;48.150;11.506;2023-02-01T02:43:25;96059.97;;;4.41;84.72
9839;BME280;4958;48.150;11.506;2023-02-01T02:46:21;96055.16;;;4.47;84.11
9839;BME280;4958;48.150;11.506;2023-02-01T02:49:11;96053.53;;;4.46;84.13
9839;BME280;4958;48.150;11.506;2023-02-01T02:51:44;96043.72;;;4.42;84.55
9839;BME280;4958;48.150;11.506;2023-02-01T02:54:47;96048.19;;;4.49;84.10
9839;BME280;4958;48.150;11.506;2023-02-01T02:57:19;96043.97;;;4.39;84.21
9839;BME280;4958;48.150;11.506;2023-02-01T03:00:06;96035.78;;;4.35;84.63
9839;BME280;4958;48.150;11.506;2023-02-01T03:02:52;96044.00;;;4.48;83.86
9839;BME280;4958;48.150;11.506;2023-02-01T03:05:40;96038.53;;;4.53;83.03
9839;BME280;4958;48.150;11.506;2023-02-01T03:08:12;96034.81;;;4.57;82.76
9839;BME280;4958;48.150;11.506;2023-02-01T03:10:50;96036.28;;;4.60;82.34
9839;BME280;4958;48.150;11.506;2023-02-01T03:13:26;96030.78;;;4.64;82.08
9839;BME280;4958;48.150;11.506;2023-02-01T03:15:59;96036.69;;;4.65;82.10
9839;BME280;4958;48.150;11.506;2023-02-01T03:18:31;96023.53;;;4.60;81.92
9839;BME280;4958;48.150;11.506;2023-02-01T03:21:02;96021.69;;;4.62;81.46
9839;BME280;4958;48.150;11.506;2023-02-01T03:23:34;96022.31;;;4.64;81.55
9839;BME280;4958;48.150;11.506;2023-02-01T03:26:02;96016.56;;;4.62;81.10
9839;BME280;4958;48.150;11.506;2023-02-01T03:28:32;96015.84;;;4.50;81.80
9839;BME280;4958;48.150;11.506;2023-02-01T03:31:01;96026.91;;;4.60;81.20
9839;BME280;4958;48.150;11.506;2023-02-01T03:33:29;96019.13;;;4.71;80.53
9839;BME280;4958;48.150;11.506;2023-02-01T03:36:02;96020.88;;;4.71;80.22
9839;BME280;4958;48.150;11.506;2023-02-01T03:38:38;96017.91;;;4.66;80.47
9839;BME280;4958;48.150;11.506;2023-02-01T03:41:11;96020.72;;;4.63;80.42
9839;BME280;4958;48.150;11.506;2023-02-01T03:43:51;96020.72;;;4.63;80.50
9839;BME280;4958;48.150;11.506;2023-02-01T03:46:27;96011.75;;;4.68;79.75
9839;BME280;4958;48.150;11.506;2023-02-01T03:49:01;96006.38;;;4.62;80.16
9839;BME280;4958;48.150;11.506;2023-02-01T03:51:29;96002.47;;;4.58;80.13
9839;BME280;4958;48.150;11.506;2023-02-01T03:53:59;96008.75;;;4.54;80.62
9839;BME280;4958;48.150;11.506;2023-02-01T03:56:29;96007.94;;;4.53;80.25
9839;BME280;4958;48.150;11.506;2023-02-01T03:58:56;96000.72;;;4.58;79.62
9839;BME280;4958;48.150;11.506;2023-02-01T04:01:27;96011.59;;;4.60;79.41
9839;BME280;4958;48.150;11.506;2023-02-01T04:03:54;96010.13;;;4.67;79.14
9839;BME280;4958;48.150;11.506;2023-02-01T04:06:21;96001.53;;;4.68;79.25
9839;BME280;4958;48.150;11.506;2023-02-01T04:08:48;96009.84;;;4.61;79.12
9839;BME280;4958;48.150;11.506;2023-02-01T04:11:16;96007.03;;;4.64;79.13
9839;BME280;4958;48.150;11.506;2023-02-01T04:13:43;96013.06;;;4.63;79.19
9839;BME280;4958;48.150;11.506;2023-02-01T04:16:09;96015.91;;;4.60;79.01
9839;BME280;4958;48.150;11.506;2023-02-01T04:18:36;96020.06;;;4.70;78.52
9839;BME280;4958;48.150;11.506;2023-02-01T04:21:03;96005.84;;;4.68;78.50
9839;BME280;4958;48.150;11.506;2023-02-01T04:23:30;96007.44;;;4.69;78.56
9839;BME280;4958;48.150;11.506;2023-02-01T04:25:59;95995.06;;;4.64;78.08
9839;BME280;4958;48.150;11.506;2023-02-01T04:28:27;96009.31;;;4.67;77.81
9839;BME280;4958;48.150;11.506;2023-02-01T04:30:54;96004.78;;;4.70;77.94
9839;BME280;4958;48.150;11.506;2023-02-01T04:33:21;95996.69;;;4.65;77.61
9839;BME280;4958;48.150;11.506;2023-02-01T04:35:47;96003.72;;;4.73;77.37
9839;BME280;4958;48.150;11.506;2023-02-01T04:38:14;96000.72;;;4.68;77.00
9839;BME280;4958;48.150;11.506;2023-02-01T04:40:40;96003.28;;;4.68;76.98
9839;BME280;4958;48.150;11.506;2023-02-01T04:43:06;96000.06;;;4.66;76.79
9839;BME280;4958;48.150;11.506;2023-02-01T04:45:34;96004.34;;;4.65;76.84
9839;BME280;4958;48.150;11.506;2023-02-01T04:48:00;96010.25;;;4.66;77.13
9839;BME280;4958;48.150;11.506;2023-02-01T04:50:27;96011.47;;;4.62;76.83
9839;BME280;4958;48.150;11.506;2023-02-01T04:52:53;96005.56;;;4.61;77.15
9839;BME280;4958;48.150;11.506;2023-02-01T04:55:20;96002.84;;;4.63;77.00
9839;BME280;4958;48.150;11.506;2023-02-01T04:57:46;96007.56;;;4.67;76.90
9839;BME280;4958;48.150;11.506;2023-02-01T05:00:13;96010.69;;;4.71;76.43
9839;BME280;4958;48.150;11.506;2023-02-01T05:02:41;96007.97;;;4.63;76.50
9839;BME280;4958;48.150;11.506;2023-02-01T05:05:08;96025.97;;;4.61;76.79
9839;BME280;4958;48.150;11.506;2023-02-01T05:07:35;96006.38;;;4.62;76.51
9839;BME280;4958;48.150;11.506;2023-02-01T05:10:01;96010.44;;;4.74;76.22
9839;BME280;4958;48.150;11.506;2023-02-01T05:12:28;96025.56;;;4.66;76.13
9839;BME280;4958;48.150;11.506;2023-02-01T05:15:13;96018.56;;;4.58;76.46
9839;BME280;4958;48.150;11.506;2023-02-01T05:17:39;96025.16;;;4.61;76.65
9839;BME280;4958;48.150;11.506;2023-02-01T05:20:08;96018.03;;;4.64;76.39
9839;BME280;4958;48.150;11.506;2023-02-01T05:22:35;96018.72;;;4.66;76.22
9839;BME280;4958;48.150;11.506;2023-02-01T05:25:01;96009.06;;;4.70;75.60
9839;BME280;4958;48.150;11.506;2023-02-01T05:27:28;96012.81;;;4.66;75.81
9839;BME280;4958;48.150;11.506;2023-02-01T05:29:55;96013.22;;;4.71;76.08
9839;BME280;4958;48.150;11.506;2023-02-01T05:32:21;96020.88;;;4.71;75.82
9839;BME280;4958;48.150;11.506;2023-02-01T05:34:48;96016.84;;;4.68;75.50
9839;BME280;4958;48.150;11.506;2023-02-01T05:37:16;96012.13;;;4.64;75.57
9839;BME280;4958;48.150;11.506;2023-02-01T05:39:42;96004.59;;;4.62;75.76
9839;BME280;4958;48.150;11.506;2023-02-01T05:42:09;96008.25;;;4.69;75.69
9839;BME280;4958;48.150;11.506;2023-02-01T05:44:35;96008.25;;;4.69;75.74
9839;BME280;4958;48.150;11.506;2023-02-01T05:47:01;96018.47;;;4.69;75.53
9839;BME280;4958;48.150;11.506;2023-02-01T05:49:31;96011.66;;;4.79;75.00
9839;BME280;4958;48.150;11.506;2023-02-01T05:52:00;96000.09;;;4.75;75.15
9839;BME280;4958;48.150;11.506;2023-02-01T05:54:28;95995.22;;;4.63;75.33
9839;BME280;4958;48.150;11.506;2023-02-01T05:56:55;96001.78;;;4.65;75.71
9839;BME280;4958;48.150;11.506;2023-02-01T05:59:21;95999.66;;;4.61;75.99
9839;BME280;4958;48.150;11.506;2023-02-01T06:01:48;96005.69;;;4.60;75.91
9839;BME280;4958;48.150;11.506;2023-02-01T06:04:14;95998.97;;;4.59;75.96
9839;BME280;4958;48.150;11.506;2023-02-01T06:06:41;96005.16;;;4.66;75.81
9839;BME280;4958;48.150;11.506;2023-02-01T06:09:07;95999.94;;;4.67;75.57
9839;BME280;4958;48.150;11.506;2023-02-01T06:11:35;95996.06;;;4.73;75.39
9839;BME280;4958;48.150;11.506;2023-02-01T06:14:01;95992.31;;;4.77;75.05
9839;BME280;4958;48.150;11.506;2023-02-01T06:16:28;95996.19;;;4.71;75.44
9839;BME280;4958;48.150;11.506;2023-02-01T06:18:54;96006.13;;;4.74;75.62
9839;BME280;4958;48.150;11.506;2023-02-01T06:21:20;96010.28;;;4.75;75.23
9839;BME280;4958;48.150;11.506;2023-02-01T06:23:49;96006.13;;;4.74;75.09
9839;BME280;4958;48.150;11.506;2023-02-01T06:26:16;96006.78;;;4.67;75.49
9839;BME280;4958;48.150;11.506;2023-02-01T06:28:44;96013.47;;;4.58;75.67
9839;BME280;4958;48.150;11.506;2023-02-01T06:31:11;96023.94;;;4.65;75.67
9839;BME280;4958;48.150;11.506;2023-02-01T06:33:37;95997.34;;;4.58;75.55
9839;BME280;4958;48.150;11.506;2023-02-01T06:36:06;96002.72;;;4.64;75.76
9839;BME280;4958;48.150;11.506;2023-02-01T06:38:33;95987.97;;;4.68;75.55
9839;BME280;4958;48.150;11.506;2023-02-01T06:41:00;95991.19;;;4.60;76.14
9839;BME280;4958;48.150;11.506;2023-02-01T06:43:27;95986.91;;;4.61;75.67
9839;BME280;4958;48.150;11.506;2023-02-01T06:45:59;95994.41;;;4.62;75.93
9839;BME280;4958;48.150;11.506;2023-02-01T06:48:26;96001.78;;;4.65;75.52
9839;BME280;4958;48.150;11.506;2023-02-01T06:50:53;96002.47;;;4.67;75.87
9839;BME280;4958;48.150;11.506;2023-02-01T06:53:19;95999.38;;;4.64;75.89
9839;BME280;4958;48.150;11.506;2023-02-01T06:55:51;95998.72;;;4.71;75.40
9839;BME280;4958;48.150;11.506;2023-02-01T06:58:18;95995.50;;;4.69;75.30
9839;BME280;4958;48.150;11.506;2023-02-01T07:00:44;95990.81;;;4.74;75.00
9839;BME280;4958;48.150;11.506;2023-02-01T07:03:20;95989.09;;;4.84;74.70
9839;BME280;4958;48.150;11.506;2023-02-01T07:05:46;95986.66;;;4.73;74.94
9839;BME280;4958;48.150;11.506;2023-02-01T07:08:13;95991.88;;;4.72;75.34
9839;BME280;4958;48.150;11.506;2023-02-01T07:10:39;96003.59;;;4.74;75.29
9839;BME280;4958;48.150;11.506;2023-02-01T07:13:08;95991.75;;;4.73;75.03
9839;BME280;4958;48.150;11.506;2023-02-01T07:15:34;95984.50;;;4.69;75.54
9839;BME280;4958;48.150;11.506;2023-02-01T07:18:01;95985.44;;;4.68;75.46
9839;BME280;4958;48.150;11.506;2023-02-01T07:20:30;95991.25;;;4.79;75.35
9839;BME280;4958;48.150;11.506;2023-02-01T07:22:57;95985.56;;;4.66;75.17
9839;BME280;4958;48.150;11.506;2023-02-01T07:25:23;95979.25;;;4.61;75.77
9839;BME280;4958;48.150;11.506;2023-02-01T07:27:51;95983.25;;;4.63;75.37
9839;BME280;4958;48.150;11.506;2023-02-01T07:30:18;95982.06;;;4.67;74.74
9839;BME280;4958;48.150;11.506;2023-02-01T07:32:44;95971.19;;;4.65;74.66
9839;BME280;4958;48.150;11.506;2023-02-01T07:35:10;95976.41;;;4.64;75.12
9839;BME280;4958;48.150;11.506;2023-02-01T07:37:41;95985.97;;;4.71;74.54
9839;BME280;4958;48.150;11.506;2023-02-01T07:40:08;95978.75;;;4.76;74.15
9839;BME280;4958;48.150;11.506;2023-02-01T07:42:35;95972.97;;;4.74;74.55
9839;BME280;4958;48.150;11.506;2023-02-01T07:45:02;95968.13;;;4.71;74.49
9839;BME280;4958;48.150;11.506;2023-02-01T07:47:29;95967.19;;;4.82;74.19
9839;BME280;4958;48.150;11.506;2023-02-01T07:49:56;95963.72;;;4.73;73.93
9839;BME280;4958;48.150;11.506;2023-02-01T07:52:23;95973.28;;;4.81;73.83
9839;BME280;4958;48.150;11.506;2023-02-01T07:54:50;95987.75;;;4.80;73.51
9839;BME280;4958;48.150;11.506;2023-02-01T07:57:17;95987.91;;;4.89;72.88
9839;BME280;4958;48.150;11.506;2023-02-01T07:59:43;96007.53;;;4.98;72.70
9839;BME280;4958;48.150;11.506;2023-02-01T08:02:24;95999.88;;;4.98;72.28
9839;BME280;4958;48.150;11.506;2023-02-01T08:04:50;96002.31;;;4.99;72.40
9839;BME280;4958;48.150;11.506;2023-02-01T08:07:16;96009.03;;;5.00;71.64
9839;BME280;4958;48.150;11.506;2023-02-01T08:09:43;96013.19;;;5.11;71.73
9839;BME280;4958;48.150;11.506;2023-02-01T08:12:11;96011.56;;;5.10;71.31
9839;BME280;4958;48.150;11.506;2023-02-01T08:14:37;96023.81;;;5.16;71.02
9839;BME280;4958;48.150;11.506;2023-02-01T08:17:06;96024.88;;;5.13;70.65
9839;BME280;4958;48.150;11.506;2023-02-01T08:19:32;96025.44;;;5.17;70.28
9839;BME280;4958;48.150;11.506;2023-02-01T08:21:59;96027.56;;;5.21;70.28
9839;BME280;4958;48.150;11.506;2023-02-01T08:24:31;96027.03;;;5.28;69.68
9839;BME280;4958;48.150;11.506;2023-02-01T08:26:57;96020.31;;;5.17;69.60
9839;BME280;4958;48.150;11.506;2023-02-01T08:29:25;96022.31;;;5.23;68.69
9839;BME280;4958;48.150;11.506;2023-02-01T08:31:52;96031.22;;;5.29;68.63
9839;BME280;4958;48.150;11.506;2023-02-01T08:34:19;96048.00;;;5.31;68.32
9839;BME280;4958;48.150;11.506;2023-02-01T08:36:46;96038.75;;;5.30;68.09
9839;BME280;4958;48.150;11.506;2023-02-01T08:39:12;96018.44;;;5.29;67.83
9839;BME280;4958;48.150;11.506;2023-02-01T08:41:38;96036.59;;;5.35;67.67
9839;BME280;4958;48.150;11.506;2023-02-01T08:44:07;96044.41;;;5.34;67.41
9839;BME280;4958;48.150;11.506;2023-02-01T08:46:35;96021.53;;;5.42;67.18
9839;BME280;4958;48.150;11.506;2023-02-01T08:49:01;96026.25;;;5.46;66.47
9839;BME280;4958;48.150;11.506;2023-02-01T08:51:30;96022.50;;;5.50;66.47
9839;BME280;4958;48.150;11.506;2023-02-01T08:53:57;96044.00;;;5.48;66.77
9839;BME280;4958;48.150;11.506;2023-02-01T08:56:26;96025.19;;;5.49;66.56
9839;BME280;4958;48.150;11.506;2023-02-01T08:58:52;96034.97;;;5.44;66.39
9839;BME280;4958;48.150;11.506;2023-02-01T09:01:18;96029.88;;;5.53;66.08
9839;BME280;4958;48.150;11.506;2023-02-01T09:03:46;96026.41;;;5.54;66.00
9839;BME280;4958;48.150;11.506;2023-02-01T09:06:14;96017.38;;;5.50;66.14
9839;BME280;4958;48.150;11.506;2023-02-01T09:08:41;96030.81;;;5.52;65.34
9839;BME280;4958;48.150;11.506;2023-02-01T09:11:10;96025.97;;;5.59;65.28
9839;BME280;4958;48.150;11.506;2023-02-01T09:13:37;96033.66;;;5.69;65.32
9839;BME280;4958;48.150;11.506;2023-02-01T09:16:04;96033.63;;;5.78;64.89
9839;BME280;4958;48.150;11.506;2023-02-01T09:18:30;96049.78;;;5.69;64.66
9839;BME280;4958;48.150;11.506;2023-02-01T09:20:58;96027.19;;;5.65;65.00
9839;BME280;4958;48.150;11.506;2023-02-01T09:23:25;96027.34;;;5.73;65.10
9839;BME280;4958;48.150;11.506;2023-02-01T09:25:51;96027.31;;;5.63;65.23
9839;BME280;4958;48.150;11.506;2023-02-01T09:28:18;96023.56;;;5.67;65.49
9839;BME280;4958;48.150;11.506;2023-02-01T09:30:45;96024.78;;;5.73;65.35
9839;BME280;4958;48.150;11.506;2023-02-01T09:33:11;96025.97;;;5.69;65.51
9839;BME280;4958;48.150;11.506;2023-02-01T09:35:37;96030.13;;;5.79;65.54
9839;BME280;4958;48.150;11.506;2023-02-01T09:38:06;96016.28;;;5.82;65.12
9839;BME280;4958;48.150;11.506;2023-02-01T09:40:34;96011.34;;;5.90;65.09
9839;BME280;4958;48.150;11.506;2023-02-01T09:43:18;96029.34;;;5.88;64.83
9839;BME280;4958;48.150;11.506;2023-02-01T09:45:52;96028.81;;;5.95;64.91
9839;BME280;4958;48.150;11.506;2023-02-01T09:48:31;96035.78;;;6.02;64.73
9839;BME280;4958;48.150;11.506;2023-02-01T09:50:59;96028.69;;;5.96;64.62
9839;BME280;4958;48.150;11.506;2023-02-01T09:53:55;96029.31;;;5.98;64.97
9839;BME280;4958;48.150;11.506;2023-02-01T09:56:28;96028.94;;;6.03;64.19
9839;BME280;4958;48.150;11.506;2023-02-01T09:59:02;96027.06;;;5.95;64.37
9839;BME280;4958;48.150;11.506;2023-02-01T10:01:32;96042.41;;;5.95;64.56
9839;BME280;4958;48.150;11.506;2023-02-01T10:04:02;96040.66;;;5.96;64.63
9839;BME280;4958;48.150;11.506;2023-02-01T10:06:38;96042.91;;;5.99;64.66
9839;BME280;4958;48.150;11.506;2023-02-01T10:09:16;96036.59;;;6.03;64.93
9839;BME280;4958;48.150;11.506;2023-02-01T10:11:57;96044.00;;;6.06;65.07
9839;BME280;4958;48.150;11.506;2023-02-01T10:14:42;96042.91;;;6.08;64.22
9839;BME280;4958;48.150;11.506;2023-02-01T10:17:20;96042.78;;;6.00;64.90
9839;BME280;4958;48.150;11.506;2023-02-01T10:19:55;96038.91;;;5.96;64.91
9839;BME280;4958;48.150;11.506;2023-02-01T10:22:38;96044.13;;;5.85;65.55
9839;BME280;4958;48.150;11.506;2023-02-01T10:25:13;96053.16;;;5.89;65.63
9839;BME280;4958;48.150;11.506;2023-02-01T10:27:40;96048.16;;;5.97;65.82
9839;BME280;4958;48.150;11.506;2023-02-01T10:30:17;96049.53;;;5.92;65.51
9839;BME280;4958;48.150;11.506;2023-02-01T10:32:44;96042.81;;;5.91;65.71
9839;BME280;4958;48.150;11.506;2023-02-01T10:35:15;96057.56;;;5.97;65.88
9839;BME280;4958;48.150;11.506;2023-02-01T10:37:43;96056.50;;;5.99;65.41
9839;BME280;4958;48.150;11.506;2023-02-01T10:40:16;96051.13;;;6.02;65.53
9839;BME280;4958;48.150;11.506;2023-02-01T10:42:45;96063.22;;;6.00;66.01
9839;BME280;4958;48.150;11.506;2023-02-01T10:45:14;96048.59;;;5.93;65.80
9839;BME280;4958;48.150;11.506;2023-02-01T10:47:43;96051.25;;;6.01;65.79
9839;BME280;4958;48.150;11.506;2023-02-01T10:50:16;96047.88;;;6.00;65.99
9839;BME280;4958;48.150;11.506;2023-02-01T10:52:47;96045.91;;;5.94;66.37
9839;BME280;4958;48.150;11.506;2023-02-01T10:55:36;96054.50;;;5.93;66.46
9839;BME280;4958;48.150;11.506;2023-02-01T10:58:06;96037.53;;;5.82;66.96
9839;BME280;4958;48.150;11.506;2023-02-01T11:00:42;96052.47;;;5.97;66.64
9839;BME280;4958;48.150;11.506;2023-02-01T11:03:32;96059.09;;;5.89;66.47
9839;BME280;4958;48.150;11.506;2023-02-01T11:06:01;96048.16;;;5.97;65.95
9839;BME280;4958;48.150;11.506;2023-02-01T11:08:29;96054.47;;;6.03;66.18
9839;BME280;4958;48.150;11.506;2023-02-01T11:11:01;96063.22;;;6.00;65.76
9839;BME280;4958;48.150;11.506;2023-02-01T11:13:29;96071.31;;;6.05;66.21
9839;BME280;4958;48.150;11.506;2023-02-01T11:15:57;96072.38;;;6.12;65.95
9839;BME280;4958;48.150;11.506;2023-02-01T11:18:26;96065.66;;;6.11;65.62
9839;BME280;4958;48.150;11.506;2023-02-01T11:20:53;96069.94;;;6.11;65.50
9839;BME280;4958;48.150;11.506;2023-02-01T11:23:22;96071.97;;;6.07;65.50
9839;BME280;4958;48.150;11.506;2023-02-01T11:25:51;96073.59;;;5.99;65.85
9839;BME280;4958;48.150;11.506;2023-02-01T11:28:23;96072.66;;;5.90;65.68
9839;BME280;4958;48.150;11.506;2023-02-01T11:30:51;96075.91;;;5.92;66.17
9839;BME280;4958;48.150;11.506;2023-02-01T11:33:21;96066.19;;;5.86;66.28
9839;BME280;4958;48.150;11.506;2023-02-01T11:35:51;96085.44;;;5.90;66.39
9839;BME280;4958;48.150;11.506;2023-02-01T11:38:22;96072.75;;;5.79;66.48
9839;BME280;4958;48.150;11.506;2023-02-01T11:40:48;96073.69;;;5.78;66.84
9839;BME280;4958;48.150;11.506;2023-02-01T11:43:22;96075.47;;;5.68;66.07
9839;BME280;4958;48.150;11.506;2023-02-01T11:45:57;96062.69;;;5.68;66.76
9839;BME280;4958;48.150;11.506;2023-02-01T11:48:26;96078.00;;;5.68;66.64
9839;BME280;4958;48.150;11.506;2023-02-01T11:51:02;96060.13;;;5.68;66.93
9839;BME280;4958;48.150;11.506;2023-02-01T11:53:38;96070.75;;;5.73;66.88
9839;BME280;4958;48.150;11.506;2023-02-01T11:56:14;96058.66;;;5.75;66.77
9839;BME280;4958;48.150;11.506;2023-02-01T11:58:56;96059.31;;;5.67;66.93
9839;BME280;4958;48.150;11.506;2023-02-01T12:01:36;96047.63;;;5.65;67.46
9839;BME280;4958;48.150;11.506;2023-02-01T12:07:02;96052.06;;;5.72;67.76
9839;BME280;4958;48.150;11.506;2023-02-01T12:09:43;96027.44;;;5.81;67.72
9839;BME280;4958;48.150;11.506;2023-02-01T12:12:19;96032.53;;;5.81;67.32
9839;BME280;4958;48.150;11.506;2023-02-01T12:14:59;96022.31;;;5.81;67.50
9839;BME280;4958;48.150;11.506;2023-02-01T12:18:04;96046.13;;;5.81;67.23
9839;BME280;4958;48.150;11.506;2023-02-01T12:20:47;96029.06;;;5.72;67.04
9839;BME280;4958;48.150;11.506;2023-02-01T12:23:29;96030.69;;;5.73;67.42
9839;BME280;4958;48.150;11.506;2023-02-01T12:26:07;96032.31;;;5.74;67.29
9839;BME280;4958;48.150;11.506;2023-02-01T12:29:01;96032.31;;;5.74;67.06
9839;BME280;4958;48.150;11.506;2023-02-01T12:31:43;96037.94;;;5.68;66.95
9839;BME280;4958;48.150;11.506;2023-02-01T12:34:26;96028.94;;;5.64;67.39
9839;BME280;4958;48.150;11.506;2023-02-01T12:37:03;96044.78;;;5.58;67.25
9839;BME280;4958;48.150;11.506;2023-02-01T12:39:39;96035.13;;;5.52;67.05
9839;BME280;4958;48.150;11.506;2023-02-01T12:42:11;96033.25;;;5.54;67.43
9839;BME280;4958;48.150;11.506;2023-02-01T12:44:44;96036.72;;;5.63;67.39
9839;BME280;4958;48.150;11.506;2023-02-01T12:47:20;96026.78;;;5.60;66.63
9839;BME280;4958;48.150;11.506;2023-02-01T12:49:53;96017.38;;;5.60;66.62
9839;BME280;4958;48.150;11.506;2023-02-01T12:52:26;96021.03;;;5.58;66.26
9839;BME280;4958;48.150;11.506;2023-02-01T12:55:06;96015.09;;;5.67;65.74
9839;BME280;4958;48.150;11.506;2023-02-01T12:57:37;96006.09;;;5.72;65.38
9839;BME280;4958;48.150;11.506;2023-02-01T13:00:20;96005.81;;;5.66;64.85
9839;BME280;4958;48.150;11.506;2023-02-01T13:02:59;96001.38;;;5.68;64.79
9839;BME280;4958;48.150;11.506;2023-02-01T13:05:30;96006.75;;;5.65;64.84
9839;BME280;4958;48.150;11.506;2023-02-01T13:08:00;95992.22;;;5.65;64.84
9839;BME280;4958;48.150;11.506;2023-02-01T13:10:32;96014.28;;;5.76;64.89
9839;BME280;4958;48.150;11.506;2023-02-01T13:13:04;95998.56;;;5.71;64.74
9839;BME280;4958;48.150;11.506;2023-02-01T13:15:39;95992.63;;;5.70;64.86
9839;BME280;4958;48.150;11.506;2023-02-01T13:18:13;95995.31;;;5.69;65.07
9839;BME280;4958;48.150;11.506;2023-02-01T13:20:47;96026.63;;;5.80;65.73
9839;BME280;4958;48.150;11.506;2023-02-01T13:23:22;95985.25;;;5.77;66.44
9839;BME280;4958;48.150;11.506;2023-02-01T13:25:51;95986.69;;;5.79;65.78
9839;BME280;4958;48.150;11.506;2023-02-01T13:28:25;95980.00;;;5.69;66.03
9839;BME280;4958;48.150;11.506;2023-02-01T13:31:02;95979.19;;;5.68;66.18
9839;BME280;4958;48.150;11.506;2023-02-01T13:33:44;95982.97;;;5.74;66.50
9839;BME280;4958;48.150;11.506;2023-02-01T13:36:32;95984.13;;;5.79;66.42
9839;BME280;4958;48.150;11.506;2023-02-01T13:42:14;95974.84;;;5.78;67.68
9839;BME280;4958;48.150;11.506;2023-02-01T13:44:46;95973.78;;;5.81;67.36
9839;BME280;4958;48.150;11.506;2023-02-01T13:47:22;95979.69;;;5.81;67.89
9839;BME280;4958;48.150;11.506;2023-02-01T13:49:53;95978.09;;;5.80;67.99
9839;BME280;4958;48.150;11.506;2023-02-01T13:52:26;95985.50;;;5.74;68.11
9839;BME280;4958;48.150;11.506;2023-02-01T13:55:14;95976.34;;;5.81;68.38